sensor_id;sensor_type;location;lat;lon;timestamp;pressure;altitude;pressure_sealevel;temperature;humidity
15050;BME280;7622;42.724;23.250;2023-05-02T00:00:43;94984.53;;;12.79;100.00
15050;BME280;7622;42.724;23.250;2023-05-02T00:03:11;95003.16;;;12.84;100.00
15050;BME280;7622;42.724;23.250;2023-05-02T00:05:38;95004.22;;;12.91;100.00
15050;BME280;7622;42.724;23.250;2023-05-02T00:08:06;94996.06;;;12.94;100.00
15050;BME280;7622;42.724;23.250;2023-05-02T00:10:33;94998.78;;;12.85;100.00
15050;BME280;7622;42.724;23.250;2023-05-02T00:13:00;94991.38;;;12.80;100.00
15050;BME280;7622;42.724;23.250;2023-05-02T00:15:27;94989.91;;;12.95;100.00
15050;BME280;7622;42.724;23.250;2023-05-02T00:17:53;94994.81;;;12.98;100.00
15050;BME280;7622;42.724;23.250;2023-05-02T00:20:20;94991.31;;;12.90;100.00
15050;BME280;7622;42.724;23.250;2023-05-02T00:22:47;94985.81;;;12.93;100.00
15050;BME280;7622;42.724;23.250;2023-05-02T00:25:15;95007.84;;;12.81;100.00
15050;BME280;7622;42.724;23.250;2023-05-02T00:27:42;95008.66;;;12.81;100.00
15050;BME280;7622;42.724;23.250;2023-05-02T00:30:11;95015.81;;;12.79;100.00
15050;BME280;7622;42.724;23.250;2023-05-02T00:32:38;95010.75;;;12.78;100.00
15050;BME280;7622;42.724;23.250;2023-05-02T00:35:06;95008.81;;;12.62;100.00
15050;BME280;7622;42.724;23.250;2023-05-02T00:37:33;95017.41;;;12.72;100.00
15050;BME280;7622;42.724;23.250;2023-05-02T00:40:00;95021.25;;;12.68;100.00
15050;BME280;7622;42.724;23.250;2023-05-02T00:42:29;95019.69;;;12.75;100.00
15050;BME280;7622;42.724;23.250;2023-05-02T00:44:57;95027.81;;;12.72;100.00
15050;BME280;7622;42.724;23.250;2023-05-02T00:47:24;95025.50;;;12.69;100.00
15050;BME280;7622;42.724;23.250;2023-05-02T00:49:51;95027.41;;;12.67;100.00
15050;BME280;7622;42.724;23.250;2023-05-02T00:52:18;95029.66;;;12.62;100.00
15050;BME280;7622;42.724;23.250;2023-05-02T00:54:46;95028.69;;;12.63;100.00
15050;BME280;7622;42.724;23.250;2023-05-02T00:57:13;95025.13;;;12.64;100.00
15050;BME280;7622;42.724;23.250;2023-05-02T00:59:41;95026.38;;;12.60;100.00
15050;BME280;7622;42.724;23.250;2023-05-02T01:02:17;95028.84;;;12.61;100.00
15050;BME280;7622;42.724;23.250;2023-05-02T01:04:55;95024.53;;;12.70;100.00
15050;BME280;7622;42.724;23.250;2023-05-02T01:07:37;95020.38;;;12.77;100.00
15050;BME280;7622;42.724;23.250;2023-05-02T01:10:13;95022.00;;;12.78;100.00
15050;BME280;7622;42.724;23.250;2023-05-02T01:12:47;95012.41;;;12.79;100.00
15050;BME280;7622;42.724;23.250;2023-05-02T01:15:19;95026.13;;;12.98;100.00
15050;BME280;7622;42.724;23.250;2023-05-02T01:17:47;95013.28;;;12.87;100.00
15050;BME280;7622;42.724;23.250;2023-05-02T01:20:19;95003.28;;;13.00;100.00
15050;BME280;7622;42.724;23.250;2023-05-02T01:22:47;95007.88;;;12.98;100.00
15050;BME280;7622;42.724;23.250;2023-05-02T01:25:21;94976.66;;;12.71;100.00
15050;BME280;7622;42.724;23.250;2023-05-02T01:28:03;95005.84;;;12.92;100.00
15050;BME280;7622;42.724;23.250;2023-05-02T01:30:37;95007.19;;;12.96;100.00
15050;BME280;7622;42.724;23.250;2023-05-02T01:33:07;94985.88;;;12.83;100.00
15050;BME280;7622;42.724;23.250;2023-05-02T01:35:36;95003.16;;;12.84;100.00
15050;BME280;7622;42.724;23.250;2023-05-02T01:38:05;94998.19;;;12.91;100.00
15050;BME280;7622;42.724;23.250;2023-05-02T01:40:33;95008.28;;;12.94;100.00
15050;BME280;7622;42.724;23.250;2023-05-02T01:43:01;95007.41;;;12.85;100.00
15050;BME280;7622;42.724;23.250;2023-05-02T01:45:32;95014.56;;;12.83;100.00
15050;BME280;7622;42.724;23.250;2023-05-02T01:48:05;95022.06;;;12.86;100.00
15050;BME280;7622;42.724;23.250;2023-05-02T01:50:33;95004.34;;;12.72;100.00
15050;BME280;7622;42.724;23.250;2023-05-02T01:53:00;95014.19;;;12.78;100.00
15050;BME280;7622;42.724;23.250;2023-05-02T01:55:30;95016.56;;;12.72;100.00
15050;BME280;7622;42.724;23.250;2023-05-02T01:57:58;95017.00;;;12.67;100.00
15050;BME280;7622;42.724;23.250;2023-05-02T02:00:27;95018.25;;;12.63;100.00
15050;BME280;7622;42.724;23.250;2023-05-02T02:02:56;95015.66;;;12.63;100.00
15050;BME280;7622;42.724;23.250;2023-05-02T02:05:26;95001.22;;;12.51;100.00
15050;BME280;7622;42.724;23.250;2023-05-02T02:07:53;95007.09;;;12.71;100.00
15050;BME280;7622;42.724;23.250;2023-05-02T02:10:21;95006.66;;;12.57;100.00
15050;BME280;7622;42.724;23.250;2023-05-02T02:12:51;95005.81;;;12.57;100.00
15050;BME280;7622;42.724;23.250;2023-05-02T02:15:21;94995.69;;;12.54;100.00
15050;BME280;7622;42.724;23.250;2023-05-02T02:17:56;95004.19;;;12.56;100.00
15050;BME280;7622;42.724;23.250;2023-05-02T02:20:24;94988.47;;;12.48;100.00
15050;BME280;7622;42.724;23.250;2023-05-02T02:22:52;95002.06;;;12.42;100.00
15050;BME280;7622;42.724;23.250;2023-05-02T02:25:19;95006.31;;;12.43;100.00
15050;BME280;7622;42.724;23.250;2023-05-02T02:27:46;95013.22;;;12.34;100.00
15050;BME280;7622;42.724;23.250;2023-05-02T02:30:14;95006.97;;;12.17;100.00
15050;BME280;7622;42.724;23.250;2023-05-02T02:32:41;95012.88;;;11.92;100.00
15050;BME280;7622;42.724;23.250;2023-05-02T02:35:09;95013.63;;;11.75;100.00
15050;BME280;7622;42.724;23.250;2023-05-02T02:37:40;95015.25;;;11.57;100.00
15050;BME280;7622;42.724;23.250;2023-05-02T02:40:16;95011.22;;;11.25;100.00
15050;BME280;7622;42.724;23.250;2023-05-02T02:42:51;95013.56;;;11.19;100.00
15050;BME280;7622;42.724;23.250;2023-05-02T02:45:37;95021.91;;;10.84;100.00
15050;BME280;7622;42.724;23.250;2023-05-02T02:48:14;95032.41;;;10.73;100.00
15050;BME280;7622;42.724;23.250;2023-05-02T02:50:52;95029.69;;;10.64;100.00
15050;BME280;7622;42.724;23.250;2023-05-02T02:53:26;95031.19;;;10.57;100.00
15050;BME280;7622;42.724;23.250;2023-05-02T02:56:03;95029.91;;;10.42;100.00
15050;BME280;7622;42.724;23.250;2023-05-02T02:58:38;95035.47;;;10.28;100.00
15050;BME280;7622;42.724;23.250;2023-05-02T03:01:17;95044.25;;;10.37;100.00
15050;BME280;7622;42.724;23.250;2023-05-02T03:03:46;95028.94;;;10.03;100.00
15050;BME280;7622;42.724;23.250;2023-05-02T03:06:14;95040.06;;;10.15;100.00
15050;BME280;7622;42.724;23.250;2023-05-02T03:08:43;95028.28;;;10.11;100.00
15050;BME280;7622;42.724;23.250;2023-05-02T03:11:10;95042.69;;;10.24;100.00
15050;BME280;7622;42.724;23.250;2023-05-02T03:13:37;95015.09;;;10.23;100.00
15050;BME280;7622;42.724;23.250;2023-05-02T03:16:33;95049.44;;;10.37;100.00
15050;BME280;7622;42.724;23.250;2023-05-02T03:19:00;95051.84;;;10.19;100.00
15050;BME280;7622;42.724;23.250;2023-05-02T03:21:27;95052.34;;;10.43;100.00
15050;BME280;7622;42.724;23.250;2023-05-02T03:23:57;95051.41;;;10.54;100.00
15050;BME280;7622;42.724;23.250;2023-05-02T03:26:24;95054.41;;;10.49;100.00
15050;BME280;7622;42.724;23.250;2023-05-02T03:28:51;95061.00;;;10.73;100.00
15050;BME280;7622;42.724;23.250;2023-05-02T03:31:18;95057.31;;;11.14;100.00
15050;BME280;7622;42.724;23.250;2023-05-02T03:33:44;95049.81;;;11.20;100.00
15050;BME280;7622;42.724;23.250;2023-05-02T03:36:11;95057.47;;;11.31;100.00
15050;BME280;7622;42.724;23.250;2023-05-02T03:38:38;95049.88;;;11.86;100.00
15050;BME280;7622;42.724;23.250;2023-05-02T03:41:06;95051.66;;;11.76;100.00
15050;BME280;7622;42.724;23.250;2023-05-02T03:43:33;95058.81;;;11.74;100.00
15050;BME280;7622;42.724;23.250;2023-05-02T03:46:03;95056.31;;;11.63;100.00
15050;BME280;7622;42.724;23.250;2023-05-02T03:48:32;95062.78;;;11.78;100.00
15050;BME280;7622;42.724;23.250;2023-05-02T03:51:00;95055.16;;;12.04;100.00
15050;BME280;7622;42.724;23.250;2023-05-02T03:53:28;95057.38;;;12.36;100.00
15050;BME280;7622;42.724;23.250;2023-05-02T03:55:54;95056.91;;;12.13;100.00
15050;BME280;7622;42.724;23.250;2023-05-02T03:58:23;95061.41;;;12.75;100.00
15050;BME280;7622;42.724;23.250;2023-05-02T04:00:52;95067.00;;;12.98;100.00
15050;BME280;7622;42.724;23.250;2023-05-02T04:03:19;95069.88;;;13.22;100.00
15050;BME280;7622;42.724;23.250;2023-05-02T04:05:46;95066.31;;;13.23;100.00
15050;BME280;7622;42.724;23.250;2023-05-02T04:08:13;95075.59;;;13.61;100.00
15050;BME280;7622;42.724;23.250;2023-05-02T04:10:40;95073.03;;;13.69;100.00
15050;BME280;7622;42.724;23.250;2023-05-02T04:13:07;95070.59;;;13.68;100.00
15050;BME280;7622;42.724;23.250;2023-05-02T04:15:35;95058.72;;;13.73;100.00
15050;BME280;7622;42.724;23.250;2023-05-02T04:18:02;95065.59;;;13.74;100.00
15050;BME280;7622;42.724;23.250;2023-05-02T04:20:29;95077.50;;;13.77;100.00
15050;BME280;7622;42.724;23.250;2023-05-02T04:22:56;95054.06;;;13.85;100.00
15050;BME280;7622;42.724;23.250;2023-05-02T04:25:22;95059.19;;;13.95;100.00
15050;BME280;7622;42.724;23.250;2023-05-02T04:27:49;95067.84;;;13.95;100.00
15050;BME280;7622;42.724;23.250;2023-05-02T04:30:16;95063.88;;;14.17;100.00
15050;BME280;7622;42.724;23.250;2023-05-02T04:32:44;95073.13;;;14.37;100.00
15050;BME280;7622;42.724;23.250;2023-05-02T04:35:11;95066.41;;;14.01;100.00
15050;BME280;7622;42.724;23.250;2023-05-02T04:37:39;95066.22;;;14.28;100.00
15050;BME280;7622;42.724;23.250;2023-05-02T04:40:07;95065.56;;;14.52;100.00
15050;BME280;7622;42.724;23.250;2023-05-02T04:42:34;95075.31;;;14.84;100.00
15050;BME280;7622;42.724;23.250;2023-05-02T04:45:01;95069.13;;;14.93;100.00
15050;BME280;7622;42.724;23.250;2023-05-02T04:47:27;95072.38;;;14.95;100.00
15050;BME280;7622;42.724;23.250;2023-05-02T04:49:56;95075.41;;;15.49;100.00
15050;BME280;7622;42.724;23.250;2023-05-02T04:52:22;95073.47;;;15.59;100.00
15050;BME280;7622;42.724;23.250;2023-05-02T04:54:49;95072.44;;;15.35;100.00
15050;BME280;7622;42.724;23.250;2023-05-02T04:57:16;95074.44;;;15.42;100.00
15050;BME280;7622;42.724;23.250;2023-05-02T04:59:43;95073.94;;;15.95;100.00
15050;BME280;7622;42.724;23.250;2023-05-02T05:02:10;95077.25;;;15.89;97.23
15050;BME280;7622;42.724;23.250;2023-05-02T05:04:37;95065.41;;;15.44;99.03
15050;BME280;7622;42.724;23.250;2023-05-02T05:07:06;95076.00;;;15.10;100.00
15050;BME280;7622;42.724;23.250;2023-05-02T05:09:32;95074.25;;;15.19;100.00
15050;BME280;7622;42.724;23.250;2023-05-02T05:11:59;95067.50;;;15.08;100.00
15050;BME280;7622;42.724;23.250;2023-05-02T05:14:26;95074.09;;;15.20;100.00
15050;BME280;7622;42.724;23.250;2023-05-02T05:16:53;95071.34;;;14.80;100.00
15050;BME280;7622;42.724;23.250;2023-05-02T05:19:20;95073.28;;;14.70;100.00
15050;BME280;7622;42.724;23.250;2023-05-02T05:21:46;95079.41;;;14.44;100.00
15050;BME280;7622;42.724;23.250;2023-05-02T05:24:14;95076.25;;;14.75;100.00
15050;BME280;7622;42.724;23.250;2023-05-02T05:26:41;95069.06;;;14.77;100.00
15050;BME280;7622;42.724;23.250;2023-05-02T05:29:08;95072.19;;;14.88;100.00
15050;BME280;7622;42.724;23.250;2023-05-02T05:31:35;95086.38;;;14.70;100.00
15050;BME280;7622;42.724;23.250;2023-05-02T05:34:02;95082.25;;;15.17;99.27
15050;BME280;7622;42.724;23.250;2023-05-02T05:36:28;95073.13;;;15.46;93.94
15050;BME280;7622;42.724;23.250;2023-05-02T05:38:55;95075.41;;;15.49;93.00
15050;BME280;7622;42.724;23.250;2023-05-02T05:41:23;95082.63;;;15.63;88.95
15050;BME280;7622;42.724;23.250;2023-05-02T05:43:50;95083.06;;;15.42;90.64
15050;BME280;7622;42.724;23.250;2023-05-02T05:46:17;95113.09;;;15.56;88.29
15050;BME280;7622;42.724;23.250;2023-05-02T05:48:44;95084.09;;;15.57;86.85
15050;BME280;7622;42.724;23.250;2023-05-02T05:51:10;95080.03;;;15.55;86.68
15050;BME280;7622;42.724;23.250;2023-05-02T05:53:37;95098.00;;;15.42;86.92
15050;BME280;7622;42.724;23.250;2023-05-02T05:56:07;95090.75;;;15.19;89.16
15050;BME280;7622;42.724;23.250;2023-05-02T05:58:36;95089.13;;;15.18;87.74
15050;BME280;7622;42.724;23.250;2023-05-02T06:01:03;95118.22;;;15.15;87.98
15050;BME280;7622;42.724;23.250;2023-05-02T06:03:30;95100.16;;;15.54;85.58
15050;BME280;7622;42.724;23.250;2023-05-02T06:05:57;95110.47;;;15.72;80.58
15050;BME280;7622;42.724;23.250;2023-05-02T06:08:24;95105.72;;;15.67;84.36
15050;BME280;7622;42.724;23.250;2023-05-02T06:10:51;95100.97;;;15.55;82.36
15050;BME280;7622;42.724;23.250;2023-05-02T06:13:17;95100.25;;;15.28;84.47
15050;BME280;7622;42.724;23.250;2023-05-02T06:15:45;95100.97;;;15.55;83.02
15050;BME280;7622;42.724;23.250;2023-05-02T06:18:12;95108.81;;;15.63;81.41
15050;BME280;7622;42.724;23.250;2023-05-02T06:20:39;95092.31;;;15.62;81.68
15050;BME280;7622;42.724;23.250;2023-05-02T06:23:06;95086.88;;;15.64;81.04
15050;BME280;7622;42.724;23.250;2023-05-02T06:25:36;95093.75;;;16.05;78.90
15050;BME280;7622;42.724;23.250;2023-05-02T06:28:03;95096.25;;;16.62;74.21
15050;BME280;7622;42.724;23.250;2023-05-02T06:30:30;95094.88;;;16.74;71.88
15050;BME280;7622;42.724;23.250;2023-05-02T06:32:58;95087.88;;;17.06;69.98
15050;BME280;7622;42.724;23.250;2023-05-02T06:35:25;95098.09;;;17.23;68.40
15050;BME280;7622;42.724;23.250;2023-05-02T06:37:51;95108.09;;;17.28;66.36
15050;BME280;7622;42.724;23.250;2023-05-02T06:40:18;95087.50;;;17.09;68.74
15050;BME280;7622;42.724;23.250;2023-05-02T06:42:45;95093.09;;;17.37;66.39
15050;BME280;7622;42.724;23.250;2023-05-02T06:45:12;95091.50;;;17.50;66.13
15050;BME280;7622;42.724;23.250;2023-05-02T06:47:39;95083.28;;;17.61;64.18
15050;BME280;7622;42.724;23.250;2023-05-02T06:50:08;95100.00;;;17.60;64.52
15050;BME280;7622;42.724;23.250;2023-05-02T06:52:35;95087.69;;;17.84;62.73
15050;BME280;7622;42.724;23.250;2023-05-02T06:55:02;95091.97;;;17.99;60.78
15050;BME280;7622;42.724;23.250;2023-05-02T06:57:29;95082.09;;;18.01;60.47
15050;BME280;7622;42.724;23.250;2023-05-02T06:59:56;95088.78;;;17.89;60.46
15050;BME280;7622;42.724;23.250;2023-05-02T07:02:23;95094.34;;;17.71;60.44
15050;BME280;7622;42.724;23.250;2023-05-02T07:04:50;95100.69;;;17.54;60.69
15050;BME280;7622;42.724;23.250;2023-05-02T07:07:18;95095.53;;;17.38;60.75
15050;BME280;7622;42.724;23.250;2023-05-02T07:09:46;95095.97;;;17.95;59.85
15050;BME280;7622;42.724;23.250;2023-05-02T07:12:13;95099.59;;;17.49;60.21
15050;BME280;7622;42.724;23.250;2023-05-02T07:14:40;95090.50;;;17.82;59.85
15050;BME280;7622;42.724;23.250;2023-05-02T07:17:07;95094.28;;;18.17;59.61
15050;BME280;7622;42.724;23.250;2023-05-02T07:19:34;95100.03;;;18.50;58.87
15050;BME280;7622;42.724;23.250;2023-05-02T07:22:00;95100.06;;;18.13;57.87
15050;BME280;7622;42.724;23.250;2023-05-02T07:24:29;95094.84;;;18.27;56.84
15050;BME280;7622;42.724;23.250;2023-05-02T07:26:55;95109.16;;;18.39;56.50
15050;BME280;7622;42.724;23.250;2023-05-02T07:29:22;95092.38;;;18.40;57.06
15050;BME280;7622;42.724;23.250;2023-05-02T07:31:49;95099.34;;;18.56;55.82
15050;BME280;7622;42.724;23.250;2023-05-02T07:34:16;95097.78;;;18.62;55.61
15050;BME280;7622;42.724;23.250;2023-05-02T07:36:43;95092.81;;;18.67;54.73
15050;BME280;7622;42.724;23.250;2023-05-02T07:39:09;95108.41;;;18.83;53.77
15050;BME280;7622;42.724;23.250;2023-05-02T07:41:38;95059.13;;;18.77;53.88
15050;BME280;7622;42.724;23.250;2023-05-02T07:44:04;95102.09;;;19.13;53.75
15050;BME280;7622;42.724;23.250;2023-05-02T07:46:31;95105.75;;;19.48;53.35
15050;BME280;7622;42.724;23.250;2023-05-02T07:48:58;95089.38;;;19.74;52.24
15050;BME280;7622;42.724;23.250;2023-05-02T07:51:25;95103.06;;;19.63;51.88
15050;BME280;7622;42.724;23.250;2023-05-02T07:53:52;95096.84;;;19.49;52.21
15050;BME280;7622;42.724;23.250;2023-05-02T07:56:22;95101.31;;;19.49;51.23
15050;BME280;7622;42.724;23.250;2023-05-02T07:58:51;95090.63;;;19.78;51.61
15050;BME280;7622;42.724;23.250;2023-05-02T08:01:17;95105.44;;;20.00;50.53
15050;BME280;7622;42.724;23.250;2023-05-02T08:03:45;95095.38;;;20.11;49.74
15050;BME280;7622;42.724;23.250;2023-05-02T08:06:11;95094.72;;;20.30;50.15
15050;BME280;7622;42.724;23.250;2023-05-02T08:08:38;95097.00;;;20.12;50.03
15050;BME280;7622;42.724;23.250;2023-05-02T08:11:05;95097.56;;;20.07;49.97
15050;BME280;7622;42.724;23.250;2023-05-02T08:13:32;95097.16;;;20.31;49.26
15050;BME280;7622;42.724;23.250;2023-05-02T08:16:00;95096.06;;;20.47;49.00
15050;BME280;7622;42.724;23.250;2023-05-02T08:18:27;95103.66;;;20.98;48.47
15050;BME280;7622;42.724;23.250;2023-05-02T08:20:54;95090.03;;;21.35;47.18
15050;BME280;7622;42.724;23.250;2023-05-02T08:23:21;95098.81;;;21.49;47.03
15050;BME280;7622;42.724;23.250;2023-05-02T08:25:47;95102.16;;;21.23;47.21
15050;BME280;7622;42.724;23.250;2023-05-02T08:28:14;95090.59;;;21.31;47.11
15050;BME280;7622;42.724;23.250;2023-05-02T08:30:41;95101.03;;;21.04;47.63
15050;BME280;7622;42.724;23.250;2023-05-02T08:33:12;95109.22;;;20.75;47.99
15050;BME280;7622;42.724;23.250;2023-05-02T08:35:39;95095.88;;;20.83;47.28
15050;BME280;7622;42.724;23.250;2023-05-02T08:38:06;95096.78;;;21.10;46.90
15050;BME280;7622;42.724;23.250;2023-05-02T08:40:35;95089.56;;;21.25;46.28
15050;BME280;7622;42.724;23.250;2023-05-02T08:43:02;95098.19;;;21.53;46.47
15050;BME280;7622;42.724;23.250;2023-05-02T08:45:33;95088.88;;;21.77;45.90
15050;BME280;7622;42.724;23.250;2023-05-02T08:48:06;95078.66;;;21.54;45.53
15050;BME280;7622;42.724;23.250;2023-05-02T08:50:37;95095.81;;;21.85;45.81
15050;BME280;7622;42.724;23.250;2023-05-02T08:53:06;95093.72;;;21.47;45.87
15050;BME280;7622;42.724;23.250;2023-05-02T08:55:36;95088.91;;;21.84;46.16
15050;BME280;7622;42.724;23.250;2023-05-02T08:58:04;95100.66;;;21.61;45.89
15050;BME280;7622;42.724;23.250;2023-05-02T09:00:32;95058.72;;;21.45;46.11
15050;BME280;7622;42.724;23.250;2023-05-02T09:03:06;95081.19;;;22.02;45.88
15050;BME280;7622;42.724;23.250;2023-05-02T09:05:40;95076.25;;;21.92;45.97
15050;BME280;7622;42.724;23.250;2023-05-02T09:08:07;95082.81;;;22.10;49.29
15050;BME280;7622;42.724;23.250;2023-05-02T09:10:34;95078.53;;;22.02;49.66
15050;BME280;7622;42.724;23.250;2023-05-02T09:13:27;95079.09;;;21.65;46.38
15050;BME280;7622;42.724;23.250;2023-05-02T09:15:56;95075.44;;;21.79;46.88
15050;BME280;7622;42.724;23.250;2023-05-02T09:18:27;95076.44;;;21.04;46.22
15050;BME280;7622;42.724;23.250;2023-05-02T09:20:57;95086.34;;;20.95;46.37
15050;BME280;7622;42.724;23.250;2023-05-02T09:23:32;95075.00;;;20.26;47.97
15050;BME280;7622;42.724;23.250;2023-05-02T09:25:59;95067.38;;;20.37;47.19
15050;BME280;7622;42.724;23.250;2023-05-02T09:28:38;95080.53;;;19.82;51.61
15050;BME280;7622;42.724;23.250;2023-05-02T09:31:07;95083.41;;;19.08;53.97
15050;BME280;7622;42.724;23.250;2023-05-02T09:33:34;95070.88;;;18.96;52.60
15050;BME280;7622;42.724;23.250;2023-05-02T09:36:03;95072.53;;;18.82;51.58
15050;BME280;7622;42.724;23.250;2023-05-02T09:38:31;95007.47;;;18.46;51.15
15050;BME280;7622;42.724;23.250;2023-05-02T09:40:59;95055.84;;;18.75;53.47
15050;BME280;7622;42.724;23.250;2023-05-02T09:43:27;95057.28;;;18.92;53.98
15050;BME280;7622;42.724;23.250;2023-05-02T09:45:59;95062.69;;;19.05;50.35
15050;BME280;7622;42.724;23.250;2023-05-02T09:48:26;95056.88;;;18.74;53.21
15050;BME280;7622;42.724;23.250;2023-05-02T09:50:54;95060.91;;;18.91;51.89
15050;BME280;7622;42.724;23.250;2023-05-02T09:53:23;95063.03;;;19.38;51.80
15050;BME280;7622;42.724;23.250;2023-05-02T09:55:59;95054.44;;;19.08;54.99
15050;BME280;7622;42.724;23.250;2023-05-02T09:58:26;95058.34;;;19.97;50.66
15050;BME280;7622;42.724;23.250;2023-05-02T10:00:55;95056.84;;;20.16;49.71
15050;BME280;7622;42.724;23.250;2023-05-02T10:03:23;95059.50;;;19.88;48.12
15050;BME280;7622;42.724;23.250;2023-05-02T10:05:51;95006.25;;;19.78;50.03
15050;BME280;7622;42.724;23.250;2023-05-02T10:08:20;95059.38;;;21.00;46.34
15050;BME280;7622;42.724;23.250;2023-05-02T10:10:51;95048.41;;;21.09;47.38
15050;BME280;7622;42.724;23.250;2023-05-02T10:13:20;95046.09;;;21.34;45.49
15050;BME280;7622;42.724;23.250;2023-05-02T10:15:53;95035.19;;;22.03;44.39
15050;BME280;7622;42.724;23.250;2023-05-02T10:18:27;95041.28;;;22.23;44.52
15050;BME280;7622;42.724;23.250;2023-05-02T10:20:56;95038.00;;;21.82;45.35
15050;BME280;7622;42.724;23.250;2023-05-02T10:23:28;95027.44;;;22.08;43.55
15050;BME280;7622;42.724;23.250;2023-05-02T10:25:56;95036.84;;;22.04;45.27
15050;BME280;7622;42.724;23.250;2023-05-02T10:28:25;95036.69;;;22.76;44.91
15050;BME280;7622;42.724;23.250;2023-05-02T10:30:52;95020.13;;;22.17;44.70
15050;BME280;7622;42.724;23.250;2023-05-02T10:33:20;95017.97;;;22.65;42.63
15050;BME280;7622;42.724;23.250;2023-05-02T10:35:47;95021.31;;;23.74;40.89
15050;BME280;7622;42.724;23.250;2023-05-02T10:38:17;95018.53;;;24.37;40.83
15050;BME280;7622;42.724;23.250;2023-05-02T10:40:54;95016.38;;;24.03;39.29
15050;BME280;7622;42.724;23.250;2023-05-02T10:43:30;95019.31;;;23.94;40.06
15050;BME280;7622;42.724;23.250;2023-05-02T10:45:58;95010.69;;;23.05;42.54
15050;BME280;7622;42.724;23.250;2023-05-02T10:48:26;95018.16;;;23.21;39.85
15050;BME280;7622;42.724;23.250;2023-05-02T10:50:54;95010.19;;;23.59;39.65
15050;BME280;7622;42.724;23.250;2023-05-02T10:53:28;95014.94;;;23.12;39.61
15050;BME280;7622;42.724;23.250;2023-05-02T10:56:13;95002.28;;;23.46;39.78
15050;BME280;7622;42.724;23.250;2023-05-02T10:58:43;95007.56;;;23.84;38.98
15050;BME280;7622;42.724;23.250;2023-05-02T11:01:37;95003.06;;;23.22;39.57
15050;BME280;7622;42.724;23.250;2023-05-02T11:04:08;95005.66;;;22.90;40.87
15050;BME280;7622;42.724;23.250;2023-05-02T11:09:32;95002.72;;;23.74;39.02
15050;BME280;7622;42.724;23.250;2023-05-02T11:11:59;95007.28;;;23.67;39.55
15050;BME280;7622;42.724;23.250;2023-05-02T11:14:43;95001.19;;;22.91;39.41
15050;BME280;7622;42.724;23.250;2023-05-02T11:17:11;95002.41;;;22.95;39.71
15050;BME280;7622;42.724;23.250;2023-05-02T11:23:21;95005.28;;;22.87;40.65
15050;BME280;7622;42.724;23.250;2023-05-02T11:28:39;94979.41;;;22.11;40.86
15050;BME280;7622;42.724;23.250;2023-05-02T11:31:09;94982.63;;;22.33;40.95
15050;BME280;7622;42.724;23.250;2023-05-02T11:33:55;94974.94;;;22.18;40.71
15050;BME280;7622;42.724;23.250;2023-05-02T11:36:28;94980.63;;;22.15;41.09
15050;BME280;7622;42.724;23.250;2023-05-02T11:38:58;94966.34;;;22.23;40.78
15050;BME280;7622;42.724;23.250;2023-05-02T11:41:37;94958.47;;;21.90;41.71
15050;BME280;7622;42.724;23.250;2023-05-02T11:44:04;94973.53;;;22.03;41.28
15050;BME280;7622;42.724;23.250;2023-05-02T11:46:33;94979.81;;;22.08;41.60
15050;BME280;7622;42.724;23.250;2023-05-02T11:49:02;94967.75;;;22.38;40.70
15050;BME280;7622;42.724;23.250;2023-05-02T11:51:29;94963.03;;;22.40;40.65
15050;BME280;7622;42.724;23.250;2023-05-02T11:53:57;94962.25;;;22.40;41.06
15050;BME280;7622;42.724;23.250;2023-05-02T11:56:24;94962.66;;;22.30;40.90
15050;BME280;7622;42.724;23.250;2023-05-02T11:58:57;94963.56;;;21.85;41.21
15050;BME280;7622;42.724;23.250;2023-05-02T12:01:24;94952.97;;;21.98;41.66
15050;BME280;7622;42.724;23.250;2023-05-02T12:04:00;94947.19;;;22.27;41.13
15050;BME280;7622;42.724;23.250;2023-05-02T12:06:27;94941.84;;;22.40;41.02
15050;BME280;7622;42.724;23.250;2023-05-02T12:09:05;94946.06;;;21.97;41.29
15050;BME280;7622;42.724;23.250;2023-05-02T12:11:32;94929.56;;;21.82;41.96
15050;BME280;7622;42.724;23.250;2023-05-02T12:13:59;94934.69;;;21.57;42.57
15050;BME280;7622;42.724;23.250;2023-05-02T12:16:26;94925.72;;;21.65;42.32
15050;BME280;7622;42.724;23.250;2023-05-02T12:18:54;94923.91;;;21.45;42.68
15050;BME280;7622;42.724;23.250;2023-05-02T12:21:24;94920.44;;;21.51;42.72
15050;BME280;7622;42.724;23.250;2023-05-02T12:23:51;94936.28;;;21.38;42.87
15050;BME280;7622;42.724;23.250;2023-05-02T12:26:19;94930.94;;;20.99;43.09
15050;BME280;7622;42.724;23.250;2023-05-02T12:28:49;94922.66;;;21.15;43.07
15050;BME280;7622;42.724;23.250;2023-05-02T12:31:16;94917.56;;;21.07;43.26
15050;BME280;7622;42.724;23.250;2023-05-02T12:33:45;94931.16;;;21.04;42.87
15050;BME280;7622;42.724;23.250;2023-05-02T12:36:16;94896.81;;;21.10;43.09
15050;BME280;7622;42.724;23.250;2023-05-02T12:38:47;94902.13;;;21.17;42.46
15050;BME280;7622;42.724;23.250;2023-05-02T12:41:15;94893.53;;;20.89;42.99
15050;BME280;7622;42.724;23.250;2023-05-02T12:43:45;94913.47;;;20.91;43.17
15050;BME280;7622;42.724;23.250;2023-05-02T12:46:13;94884.19;;;20.79;42.73
15050;BME280;7622;42.724;23.250;2023-05-02T12:48:44;94888.31;;;21.15;42.25
15050;BME280;7622;42.724;23.250;2023-05-02T12:51:23;94890.56;;;21.18;41.99
15050;BME280;7622;42.724;23.250;2023-05-02T12:53:50;94873.50;;;21.20;41.61
15050;BME280;7622;42.724;23.250;2023-05-02T12:56:16;94878.97;;;21.45;41.26
15050;BME280;7622;42.724;23.250;2023-05-02T12:58:45;94881.78;;;20.98;41.32
15050;BME280;7622;42.724;23.250;2023-05-02T13:01:13;94876.09;;;20.94;41.78
15050;BME280;7622;42.724;23.250;2023-05-02T13:03:41;94862.47;;;21.10;41.72
15050;BME280;7622;42.724;23.250;2023-05-02T13:06:08;94897.59;;;20.91;41.25
15050;BME280;7622;42.724;23.250;2023-05-02T13:08:37;94875.63;;;20.64;41.62
15050;BME280;7622;42.724;23.250;2023-05-02T13:11:04;94866.03;;;20.50;41.78
15050;BME280;7622;42.724;23.250;2023-05-02T13:13:31;94868.31;;;20.60;41.88